sensor_id;sensor_type;location;lat;lon;timestamp;temperature;humidity
4596;DHT22;2310;49.978;8.742;2023-04-25T00:02:28;11.50;99.90
4596;DHT22;2310;49.978;8.742;2023-04-25T00:06:29;11.50;99.90
4596;DHT22;2310;49.978;8.742;2023-04-25T00:10:32;11.40;99.90
4596;DHT22;2310;49.978;8.742;2023-04-25T00:14:34;11.40;99.90
4596;DHT22;2310;49.978;8.742;2023-04-25T00:18:36;11.40;99.90
4596;DHT22;2310;49.978;8.742;2023-04-25T00:22:37;11.30;99.90
4596;DHT22;2310;49.978;8.742;2023-04-25T00:26:38;11.50;99.90
4596;DHT22;2310;49.978;8.742;2023-04-25T00:30:40;11.50;99.90
4596;DHT22;2310;49.978;8.742;2023-04-25T00:34:42;11.40;99.90
4596;DHT22;2310;49.978;8.742;2023-04-25T00:38:43;11.30;99.90
4596;DHT22;2310;49.978;8.742;2023-04-25T00:42:45;11.30;99.90
4596;DHT22;2310;49.978;8.742;2023-04-25T00:46:47;11.30;99.90
4596;DHT22;2310;49.978;8.742;2023-04-25T00:50:55;11.30;99.90
4596;DHT22;2310;49.978;8.742;2023-04-25T00:54:57;11.20;99.90
4596;DHT22;2310;49.978;8.742;2023-04-25T00:58:58;11.20;99.90
4596;DHT22;2310;49.978;8.742;2023-04-25T01:02:59;11.20;99.90
4596;DHT22;2310;49.978;8.742;2023-04-25T01:07:02;11.20;99.90
4596;DHT22;2310;49.978;8.742;2023-04-25T01:11:04;11.20;99.90
4596;DHT22;2310;49.978;8.742;2023-04-25T01:15:06;11.20;99.90
4596;DHT22;2310;49.978;8.742;2023-04-25T01:19:09;11.20;99.90
4596;DHT22;2310;49.978;8.742;2023-04-25T01:23:14;11.10;99.90
4596;DHT22;2310;49.978;8.742;2023-04-25T01:27:15;11.20;99.90
4596;DHT22;2310;49.978;8.742;2023-04-25T01:31:18;11.30;99.90
4596;DHT22;2310;49.978;8.742;2023-04-25T01:35:20;11.30;99.90
4596;DHT22;2310;49.978;8.742;2023-04-25T01:39:23;11.20;99.90
4596;DHT22;2310;49.978;8.742;2023-04-25T01:43:24;11.20;99.90
4596;DHT22;2310;49.978;8.742;2023-04-25T01:47:27;11.10;99.90
4596;DHT22;2310;49.978;8.742;2023-04-25T01:51:30;11.10;99.90
4596;DHT22;2310;49.978;8.742;2023-04-25T01:55:32;11.20;99.90
4596;DHT22;2310;49.978;8.742;2023-04-25T01:59:33;11.20;99.90
4596;DHT22;2310;49.978;8.742;2023-04-25T02:03:35;11.20;99.90
4596;DHT22;2310;49.978;8.742;2023-04-25T02:07:37;11.30;99.90
4596;DHT22;2310;49.978;8.742;2023-04-25T02:11:38;11.30;99.90
4596;DHT22;2310;49.978;8.742;2023-04-25T02:15:39;11.20;99.90
4596;DHT22;2310;49.978;8.742;2023-04-25T02:19:42;11.20;99.90
4596;DHT22;2310;49.978;8.742;2023-04-25T02:23:43;11.30;99.90
4596;DHT22;2310;49.978;8.742;2023-04-25T02:27:47;11.20;99.90
4596;DHT22;2310;49.978;8.742;2023-04-25T02:31:48;11.20;99.90
4596;DHT22;2310;49.978;8.742;2023-04-25T02:35:49;11.20;99.90
4596;DHT22;2310;49.978;8.742;2023-04-25T02:39:50;11.10;99.90
4596;DHT22;2310;49.978;8.742;2023-04-25T02:43:52;11.20;99.90
4596;DHT22;2310;49.978;8.742;2023-04-25T02:47:54;11.20;99.90
4596;DHT22;2310;49.978;8.742;2023-04-25T02:51:55;11.20;99.90
4596;DHT22;2310;49.978;8.742;2023-04-25T02:55:56;11.10;99.90
4596;DHT22;2310;49.978;8.742;2023-04-25T02:59:59;11.20;99.90
4596;DHT22;2310;49.978;8.742;2023-04-25T03:04:00;11.20;99.90
4596;DHT22;2310;49.978;8.742;2023-04-25T03:08:01;11.10;99.90
4596;DHT22;2310;49.978;8.742;2023-04-25T03:12:03;10.90;99.90
4596;DHT22;2310;49.978;8.742;2023-04-25T03:16:04;11.00;99.90
4596;DHT22;2310;49.978;8.742;2023-04-25T03:20:07;11.00;99.90
4596;DHT22;2310;49.978;8.742;2023-04-25T03:24:09;11.10;99.90
4596;DHT22;2310;49.978;8.742;2023-04-25T03:28:11;11.10;99.90
4596;DHT22;2310;49.978;8.742;2023-04-25T03:32:13;11.00;99.90
4596;DHT22;2310;49.978;8.742;2023-04-25T03:36:14;11.00;99.90
4596;DHT22;2310;49.978;8.742;2023-04-25T03:40:15;11.00;99.90
4596;DHT22;2310;49.978;8.742;2023-04-25T03:44:17;11.10;99.90
4596;DHT22;2310;49.978;8.742;2023-04-25T03:48:18;11.00;99.90
4596;DHT22;2310;49.978;8.742;2023-04-25T03:52:21;11.00;99.90
4596;DHT22;2310;49.978;8.742;2023-04-25T03:56:23;10.90;99.90
4596;DHT22;2310;49.978;8.742;2023-04-25T04:00:25;10.90;99.90
4596;DHT22;2310;49.978;8.742;2023-04-25T04:04:26;10.90;99.90
4596;DHT22;2310;49.978;8.742;2023-04-25T04:08:27;10.90;99.90
4596;DHT22;2310;49.978;8.742;2023-04-25T04:12:29;10.90;99.90
4596;DHT22;2310;49.978;8.742;2023-04-25T04:16:30;10.80;99.90
4596;DHT22;2310;49.978;8.742;2023-04-25T04:20:33;10.70;99.90
4596;DHT22;2310;49.978;8.742;2023-04-25T04:24:34;10.80;99.90
4596;DHT22;2310;49.978;8.742;2023-04-25T04:28:35;10.90;99.90
4596;DHT22;2310;49.978;8.742;2023-04-25T04:32:37;10.90;99.90
4596;DHT22;2310;49.978;8.742;2023-04-25T04:36:39;10.80;99.90
4596;DHT22;2310;49.978;8.742;2023-04-25T04:40:41;10.80;99.90
4596;DHT22;2310;49.978;8.742;2023-04-25T04:44:43;10.80;99.90
4596;DHT22;2310;49.978;8.742;2023-04-25T04:48:45;10.80;99.90
4596;DHT22;2310;49.978;8.742;2023-04-25T04:52:47;10.70;99.90
4596;DHT22;2310;49.978;8.742;2023-04-25T04:56:48;10.70;99.90
4596;DHT22;2310;49.978;8.742;2023-04-25T05:00:49;10.60;99.90
4596;DHT22;2310;49.978;8.742;2023-04-25T05:04:52;10.50;99.90
4596;DHT22;2310;49.978;8.742;2023-04-25T05:08:53;10.50;99.90
4596;DHT22;2310;49.978;8.742;2023-04-25T05:12:54;10.40;99.90
4596;DHT22;2310;49.978;8.742;2023-04-25T05:16:55;10.40;99.90
4596;DHT22;2310;49.978;8.742;2023-04-25T05:20:57;10.40;99.90
4596;DHT22;2310;49.978;8.742;2023-04-25T05:24:58;10.40;99.90
4596;DHT22;2310;49.978;8.742;2023-04-25T05:28:59;10.20;99.90
4596;DHT22;2310;49.978;8.742;2023-04-25T05:33:01;10.00;99.90
4596;DHT22;2310;49.978;8.742;2023-04-25T05:37:02;10.10;99.90
4596;DHT22;2310;49.978;8.742;2023-04-25T05:41:04;10.00;99.90
4596;DHT22;2310;49.978;8.742;2023-04-25T05:45:06;9.90;99.90
4596;DHT22;2310;49.978;8.742;2023-04-25T05:49:07;9.90;99.90
4596;DHT22;2310;49.978;8.742;2023-04-25T05:53:08;9.80;99.90
4596;DHT22;2310;49.978;8.742;2023-04-25T05:57:45;9.90;99.90
4596;DHT22;2310;49.978;8.742;2023-04-25T06:01:22;10.30;99.90
4596;DHT22;2310;49.978;8.742;2023-04-25T06:05:23;10.50;99.90
4596;DHT22;2310;49.978;8.742;2023-04-25T06:09:26;10.60;99.90
4596;DHT22;2310;49.978;8.742;2023-04-25T06:13:27;10.80;99.90
4596;DHT22;2310;49.978;8.742;2023-04-25T06:17:28;11.10;99.90
4596;DHT22;2310;49.978;8.742;2023-04-25T06:21:29;11.40;99.90
4596;DHT22;2310;49.978;8.742;2023-04-25T06:25:30;11.40;99.90
4596;DHT22;2310;49.978;8.742;2023-04-25T06:29:32;11.50;99.90
4596;DHT22;2310;49.978;8.742;2023-04-25T06:33:33;11.60;99.90
4596;DHT22;2310;49.978;8.742;2023-04-25T06:37:34;11.70;99.90
4596;DHT22;2310;49.978;8.742;2023-04-25T06:41:35;11.70;99.90
4596;DHT22;2310;49.978;8.742;2023-04-25T06:45:36;11.60;99.90
4596;DHT22;2310;49.978;8.742;2023-04-25T06:49:37;11.60;99.90
4596;DHT22;2310;49.978;8.742;2023-04-25T06:53:39;11.80;99.90
4596;DHT22;2310;49.978;8.742;2023-04-25T06:57:41;12.50;99.90
4596;DHT22;2310;49.978;8.742;2023-04-25T07:01:42;12.80;99.90
4596;DHT22;2310;49.978;8.742;2023-04-25T07:05:43;13.20;99.90
4596;DHT22;2310;49.978;8.742;2023-04-25T07:09:46;13.70;99.90
4596;DHT22;2310;49.978;8.742;2023-04-25T07:13:47;13.90;99.90
4596;DHT22;2310;49.978;8.742;2023-04-25T07:17:48;14.30;99.90
4596;DHT22;2310;49.978;8.742;2023-04-25T07:21:50;14.00;99.90
4596;DHT22;2310;49.978;8.742;2023-04-25T07:25:53;13.90;99.90
4596;DHT22;2310;49.978;8.742;2023-04-25T07:29:54;14.10;99.90
4596;DHT22;2310;49.978;8.742;2023-04-25T07:33:55;14.20;99.90
4596;DHT22;2310;49.978;8.742;2023-04-25T07:37:56;14.30;99.90
4596;DHT22;2310;49.978;8.742;2023-04-25T07:41:58;14.20;99.90
4596;DHT22;2310;49.978;8.742;2023-04-25T07:45:59;14.80;99.90
4596;DHT22;2310;49.978;8.742;2023-04-25T07:50:01;15.10;99.90
4596;DHT22;2310;49.978;8.742;2023-04-25T07:54:02;14.90;99.90
4596;DHT22;2310;49.978;8.742;2023-04-25T07:58:03;15.30;99.90
4596;DHT22;2310;49.978;8.742;2023-04-25T08:02:05;15.20;99.90
4596;DHT22;2310;49.978;8.742;2023-04-25T08:06:06;15.20;99.90
4596;DHT22;2310;49.978;8.742;2023-04-25T08:10:09;15.30;99.90
4596;DHT22;2310;49.978;8.742;2023-04-25T08:14:11;15.50;99.90
4596;DHT22;2310;49.978;8.742;2023-04-25T08:18:13;16.00;99.90
4596;DHT22;2310;49.978;8.742;2023-04-25T08:22:16;16.40;99.90
4596;DHT22;2310;49.978;8.742;2023-04-25T08:26:17;17.10;97.00
4596;DHT22;2310;49.978;8.742;2023-04-25T08:30:18;16.50;91.40
4596;DHT22;2310;49.978;8.742;2023-04-25T08:34:20;16.60;94.70
4596;DHT22;2310;49.978;8.742;2023-04-25T08:38:21;16.40;91.50
4596;DHT22;2310;49.978;8.742;2023-04-25T08:42:24;16.80;95.60
4596;DHT22;2310;49.978;8.742;2023-04-25T08:46:25;17.30;74.80
4596;DHT22;2310;49.978;8.742;2023-04-25T08:50:28;17.10;80.40
4596;DHT22;2310;49.978;8.742;2023-04-25T08:54:30;16.60;74.20
4596;DHT22;2310;49.978;8.742;2023-04-25T08:58:34;16.70;85.60
4596;DHT22;2310;49.978;8.742;2023-04-25T09:02:36;16.80;84.00
4596;DHT22;2310;49.978;8.742;2023-04-25T09:06:38;16.60;80.30
4596;DHT22;2310;49.978;8.742;2023-04-25T09:10:40;16.40;85.70
4596;DHT22;2310;49.978;8.742;2023-04-25T09:14:41;17.30;87.40
4596;DHT22;2310;49.978;8.742;2023-04-25T09:18:44;17.10;85.90
4596;DHT22;2310;49.978;8.742;2023-04-25T09:22:49;16.70;79.40
4596;DHT22;2310;49.978;8.742;2023-04-25T09:26:50;16.50;91.60
4596;DHT22;2310;49.978;8.742;2023-04-25T09:30:56;16.60;85.50
4596;DHT22;2310;49.978;8.742;2023-04-25T09:34:58;16.30;84.60
4596;DHT22;2310;49.978;8.742;2023-04-25T09:39:00;16.00;89.60
4596;DHT22;2310;49.978;8.742;2023-04-25T09:43:01;15.40;89.60
4596;DHT22;2310;49.978;8.742;2023-04-25T09:47:03;15.30;93.20
4596;DHT22;2310;49.978;8.742;2023-04-25T09:51:12;15.20;96.10
4596;DHT22;2310;49.978;8.742;2023-04-25T09:55:18;15.50;93.70
4596;DHT22;2310;49.978;8.742;2023-04-25T09:59:21;15.60;91.70
4596;DHT22;2310;49.978;8.742;2023-04-25T10:03:26;15.30;91.70
4596;DHT22;2310;49.978;8.742;2023-04-25T10:07:30;14.90;94.90
4596;DHT22;2310;49.978;8.742;2023-04-25T10:11:31;15.10;94.10
4596;DHT22;2310;49.978;8.742;2023-04-25T10:15:35;14.80;96.60
4596;DHT22;2310;49.978;8.742;2023-04-25T10:19:39;15.00;94.80
4596;DHT22;2310;49.978;8.742;2023-04-25T10:23:40;15.00;90.50
4596;DHT22;2310;49.978;8.742;2023-04-25T10:27:42;15.40;90.10
4596;DHT22;2310;49.978;8.742;2023-04-25T10:31:46;15.10;91.00
4596;DHT22;2310;49.978;8.742;2023-04-25T10:35:49;15.80;89.70
4596;DHT22;2310;49.978;8.742;2023-04-25T10:39:50;15.60;85.80
4596;DHT22;2310;49.978;8.742;2023-04-25T10:43:59;15.20;84.40
4596;DHT22;2310;49.978;8.742;2023-04-25T10:47:56;15.30;86.80
4596;DHT22;2310;49.978;8.742;2023-04-25T10:52:15;14.70;81.00
4596;DHT22;2310;49.978;8.742;2023-04-25T10:56:18;14.60;90.50
4596;DHT22;2310;49.978;8.742;2023-04-25T11:00:23;14.50;91.20
4596;DHT22;2310;49.978;8.742;2023-04-25T11:04:30;14.10;92.20
4596;DHT22;2310;49.978;8.742;2023-04-25T11:08:37;14.30;90.90
4596;DHT22;2310;49.978;8.742;2023-04-25T11:12:37;14.30;94.70
4596;DHT22;2310;49.978;8.742;2023-04-25T11:16:38;14.50;99.90
4596;DHT22;2310;49.978;8.742;2023-04-25T11:20:43;14.30;94.30
4596;DHT22;2310;49.978;8.742;2023-04-25T11:24:45;14.10;93.80
4596;DHT22;2310;49.978;8.742;2023-04-25T11:28:46;14.30;99.90
4596;DHT22;2310;49.978;8.742;2023-04-25T11:32:50;14.40;96.20
4596;DHT22;2310;49.978;8.742;2023-04-25T11:36:53;13.60;99.90
4596;DHT22;2310;49.978;8.742;2023-04-25T11:40:55;13.50;99.90
4596;DHT22;2310;49.978;8.742;2023-04-25T11:44:56;13.70;99.90
4596;DHT22;2310;49.978;8.742;2023-04-25T11:48:57;13.90;99.90
4596;DHT22;2310;49.978;8.742;2023-04-25T11:52:58;13.90;99.90
4596;DHT22;2310;49.978;8.742;2023-04-25T11:57:01;14.10;99.90
4596;DHT22;2310;49.978;8.742;2023-04-25T12:01:04;13.90;99.50
4596;DHT22;2310;49.978;8.742;2023-04-25T12:05:07;13.60;99.80
4596;DHT22;2310;49.978;8.742;2023-04-25T12:09:12;13.30;98.90
4596;DHT22;2310;49.978;8.742;2023-04-25T12:13:27;13.40;99.90
4596;DHT22;2310;49.978;8.742;2023-04-25T12:17:28;13.30;99.90
4596;DHT22;2310;49.978;8.742;2023-04-25T12:21:29;13.20;97.40
4596;DHT22;2310;49.978;8.742;2023-04-25T12:25:36;13.30;99.10
4596;DHT22;2310;49.978;8.742;2023-04-25T12:29:39;13.40;97.70
4596;DHT22;2310;49.978;8.742;2023-04-25T12:33:42;13.10;90.50
4596;DHT22;2310;49.978;8.742;2023-04-25T12:37:44;13.90;89.60
4596;DHT22;2310;49.978;8.742;2023-04-25T12:41:47;14.50;90.10
4596;DHT22;2310;49.978;8.742;2023-04-25T12:45:51;15.40;99.90
4596;DHT22;2310;49.978;8.742;2023-04-25T12:49:53;16.20;80.30
4596;DHT22;2310;49.978;8.742;2023-04-25T12:53:54;16.40;93.60
4596;DHT22;2310;49.978;8.742;2023-04-25T12:57:55;16.80;72.50
4596;DHT22;2310;49.978;8.742;2023-04-25T13:01:56;16.30;62.70
4596;DHT22;2310;49.978;8.742;2023-04-25T13:05:57;16.10;66.50
4596;DHT22;2310;49.978;8.742;2023-04-25T13:09:59;15.50;64.20
4596;DHT22;2310;49.978;8.742;2023-04-25T13:14:01;15.70;82.70
4596;DHT22;2310;49.978;8.742;2023-04-25T13:18:08;15.90;84.50
4596;DHT22;2310;49.978;8.742;2023-04-25T13:22:07;15.80;72.60
4596;DHT22;2310;49.978;8.742;2023-04-25T13:26:08;14.90;74.90
4596;DHT22;2310;49.978;8.742;2023-04-25T13:30:09;14.90;74.90
4596;DHT22;2310;49.978;8.742;2023-04-25T13:34:12;14.70;80.50
4596;DHT22;2310;49.978;8.742;2023-04-25T13:38:13;14.70;80.00
4596;DHT22;2310;49.978;8.742;2023-04-25T13:42:14;14.30;71.90
4596;DHT22;2310;49.978;8.742;2023-04-25T13:46:16;14.40;72.20
4596;DHT22;2310;49.978;8.742;2023-04-25T13:50:19;14.70;76.20
4596;DHT22;2310;49.978;8.742;2023-04-25T13:54:21;14.80;75.30
4596;DHT22;2310;49.978;8.742;2023-04-25T13:58:22;15.00;73.70
4596;DHT22;2310;49.978;8.742;2023-04-25T14:02:23;14.60;63.60
4596;DHT22;2310;49.978;8.742;2023-04-25T14:06:25;14.90;70.00
4596;DHT22;2310;49.978;8.742;2023-04-25T14:10:26;15.20;67.80
4596;DHT22;2310;49.978;8.742;2023-04-25T14:14:28;15.70;67.90
4596;DHT22;2310;49.978;8.742;2023-04-25T14:18:29;16.10;63.30
4596;DHT22;2310;49.978;8.742;2023-04-25T14:22:30;15.80;58.70
4596;DHT22;2310;49.978;8.742;2023-04-25T14:26:33;15.60;60.20
4596;DHT22;2310;49.978;8.742;2023-04-25T14:30:36;15.60;57.70
4596;DHT22;2310;49.978;8.742;2023-04-25T14:34:37;15.60;59.70
4596;DHT22;2310;49.978;8.742;2023-04-25T14:38:38;16.00;58.80
4596;DHT22;2310;49.978;8.742;2023-04-25T14:42:40;16.20;58.40
4596;DHT22;2310;49.978;8.742;2023-04-25T14:46:41;16.30;57.60
4596;DHT22;2310;49.978;8.742;2023-04-25T14:50:42;16.20;55.70
4596;DHT22;2310;49.978;8.742;2023-04-25T14:54:43;15.80;55.80
4596;DHT22;2310;49.978;8.742;2023-04-25T14:58:45;15.60;54.90
4596;DHT22;2310;49.978;8.742;2023-04-25T15:02:46;15.30;54.60
4596;DHT22;2310;49.978;8.742;2023-04-25T15:06:49;15.60;54.40
4596;DHT22;2310;49.978;8.742;2023-04-25T15:10:51;15.60;53.60
4596;DHT22;2310;49.978;8.742;2023-04-25T15:14:52;15.50;53.30
4596;DHT22;2310;49.978;8.742;2023-04-25T15:18:54;14.90;54.50
4596;DHT22;2310;49.978;8.742;2023-04-25T15:22:55;14.70;57.60
4596;DHT22;2310;49.978;8.742;2023-04-25T15:26:58;14.50;57.00
4596;DHT22;2310;49.978;8.742;2023-04-25T15:30:59;14.50;57.00
4596;DHT22;2310;49.978;8.742;2023-04-25T15:35:03;14.20;57.60
4596;DHT22;2310;49.978;8.742;2023-04-25T15:39:04;14.20;59.00
4596;DHT22;2310;49.978;8.742;2023-04-25T15:43:05;14.30;60.70
4596;DHT22;2310;49.978;8.742;2023-04-25T15:47:07;13.90;59.90
4596;DHT22;2310;49.978;8.742;2023-04-25T15:51:09;13.70;60.40
4596;DHT22;2310;49.978;8.742;2023-04-25T15:55:10;13.70;62.40
4596;DHT22;2310;49.978;8.742;2023-04-25T15:59:13;13.90;63.90
4596;DHT22;2310;49.978;8.742;2023-04-25T16:03:14;13.90;65.40
4596;DHT22;2310;49.978;8.742;2023-04-25T16:07:16;14.10;66.00
4596;DHT22;2310;49.978;8.742;2023-04-25T16:11:18;14.30;65.40
4596;DHT22;2310;49.978;8.742;2023-04-25T16:15:19;14.80;62.80
4596;DHT22;2310;49.978;8.742;2023-04-25T16:19:20;14.50;57.30
4596;DHT22;2310;49.978;8.742;2023-04-25T16:23:22;14.50;55.20
4596;DHT22;2310;49.978;8.742;2023-04-25T16:27:23;14.30;54.80
4596;DHT22;2310;49.978;8.742;2023-04-25T16:31:24;14.20;52.20
4596;DHT22;2310;49.978;8.742;2023-04-25T16:35:26;14.30;52.40
4596;DHT22;2310;49.978;8.742;2023-04-25T16:39:29;14.40;50.30
4596;DHT22;2310;49.978;8.742;2023-04-25T16:43:30;14.40;49.20
4596;DHT22;2310;49.978;8.742;2023-04-25T16:47:31;14.00;49.20
4596;DHT22;2310;49.978;8.742;2023-04-25T16:51:33;14.10;51.10
4596;DHT22;2310;49.978;8.742;2023-04-25T16:55:34;14.10;50.50
4596;DHT22;2310;49.978;8.742;2023-04-25T16:59:37;14.20;52.30
4596;DHT22;2310;49.978;8.742;2023-04-25T17:03:38;14.00;51.70
4596;DHT22;2310;49.978;8.742;2023-04-25T17:07:40;13.90;52.10
4596;DHT22;2310;49.978;8.742;2023-04-25T17:11:41;13.80;53.30
4596;DHT22;2310;49.978;8.742;2023-04-25T17:15:42;13.70;53.90
4596;DHT22;2310;49.978;8.742;2023-04-25T17:19:43;13.50;55.70
4596;DHT22;2310;49.978;8.742;2023-04-25T17:23:44;13.40;55.80
4596;DHT22;2310;49.978;8.742;2023-04-25T17:27:45;13.40;56.50
4596;DHT22;2310;49.978;8.742;2023-04-25T17:31:47;13.40;58.20
4596;DHT22;2310;49.978;8.742;2023-04-25T17:35:48;13.40;58.60
4596;DHT22;2310;49.978;8.742;2023-04-25T17:39:49;13.10;59.40
4596;DHT22;2310;49.978;8.742;2023-04-25T17:43:50;13.10;60.00
4596;DHT22;2310;49.978;8.742;2023-04-25T17:47:51;13.30;64.20
4596;DHT22;2310;49.978;8.742;2023-04-25T17:51:53;13.10;61.30
4596;DHT22;2310;49.978;8.742;2023-04-25T17:55:54;13.00;62.30
4596;DHT22;2310;49.978;8.742;2023-04-25T17:59:56;13.10;62.90
4596;DHT22;2310;49.978;8.742;2023-04-25T18:03:57;12.90;63.80
4596;DHT22;2310;49.978;8.742;2023-04-25T18:07:59;13.10;65.10
4596;DHT22;2310;49.978;8.742;2023-04-25T18:12:01;13.20;66.00
4596;DHT22;2310;49.978;8.742;2023-04-25T18:16:04;13.10;66.50
4596;DHT22;2310;49.978;8.742;2023-04-25T18:24:11;12.50;63.70
4596;DHT22;2310;49.978;8.742;2023-04-25T18:28:13;12.30;64.10
4596;DHT22;2310;49.978;8.742;2023-04-25T18:32:14;12.00;65.50
4596;DHT22;2310;49.978;8.742;2023-04-25T18:36:16;11.80;66.50
4596;DHT22;2310;49.978;8.742;2023-04-25T18:40:17;11.70;68.50
4596;DHT22;2310;49.978;8.742;2023-04-25T18:44:18;11.70;70.10
4596;DHT22;2310;49.978;8.742;2023-04-25T18:48:19;11.70;71.90
4596;DHT22;2310;49.978;8.742;2023-04-25T18:52:22;11.60;72.30
4596;DHT22;2310;49.978;8.742;2023-04-25T18:56:23;11.90;81.10
4596;DHT22;2310;49.978;8.742;2023-04-25T19:00:25;11.80;77.40
4596;DHT22;2310;49.978;8.742;2023-04-25T19:04:29;11.80;77.60
4596;DHT22;2310;49.978;8.742;2023-04-25T19:08:31;11.70;79.80
4596;DHT22;2310;49.978;8.742;2023-04-25T19:12:32;11.60;83.00
4596;DHT22;2310;49.978;8.742;2023-04-25T19:16:33;11.60;83.20
4596;DHT22;2310;49.978;8.742;2023-04-25T19:20:37;11.40;84.00
4596;DHT22;2310;49.978;8.742;2023-04-25T19:24:39;11.50;86.90
4596;DHT22;2310;49.978;8.742;2023-04-25T19:28:42;11.40;85.60
4596;DHT22;2310;49.978;8.742;2023-04-25T19:32:44;11.40;86.40
4596;DHT22;2310;49.978;8.742;2023-04-25T19:36:46;11.30;88.20
4596;DHT22;2310;49.978;8.742;2023-04-25T19:40:48;11.20;90.80
4596;DHT22;2310;49.978;8.742;2023-04-25T19:44:50;11.00;90.70
4596;DHT22;2310;49.978;8.742;2023-04-25T19:48:52;11.00;91.40
4596;DHT22;2310;49.978;8.742;2023-04-25T19:52:53;10.80;91.70
4596;DHT22;2310;49.978;8.742;2023-04-25T19:56:55;10.80;92.90
4596;DHT22;2310;49.978;8.742;2023-04-25T20:00:56;10.60;92.10
4596;DHT22;2310;49.978;8.742;2023-04-25T20:04:58;10.60;92.60
4596;DHT22;2310;49.978;8.742;2023-04-25T20:08:59;10.60;92.50
4596;DHT22;2310;49.978;8.742;2023-04-25T20:13:01;10.80;94.70
4596;DHT22;2310;49.978;8.742;2023-04-25T20:17:03;11.00;93.50
4596;DHT22;2310;49.978;8.742;2023-04-25T20:21:05;10.90;93.20
4596;DHT22;2310;49.978;8.742;2023-04-25T20:25:08;10.90;95.50
4596;DHT22;2310;49.978;8.742;2023-04-25T20:29:10;10.80;96.20
4596;DHT22;2310;49.978;8.742;2023-04-25T20:33:11;10.70;94.20
4596;DHT22;2310;49.978;8.742;2023-04-25T20:37:12;10.60;95.00
4596;DHT22;2310;49.978;8.742;2023-04-25T20:41:15;10.40;94.50
4596;DHT22;2310;49.978;8.742;2023-04-25T20:45:17;10.40;95.00
4596;DHT22;2310;49.978;8.742;2023-04-25T20:49:19;10.30;95.60
4596;DHT22;2310;49.978;8.742;2023-04-25T20:53:20;10.30;96.40
4596;DHT22;2310;49.978;8.742;2023-04-25T20:57:22;10.50;97.50
4596;DHT22;2310;49.978;8.742;2023-04-25T21:01:23;10.40;96.90
4596;DHT22;2310;49.978;8.742;2023-04-25T21:05:24;10.20;96.70
4596;DHT22;2310;49.978;8.742;2023-04-25T21:09:26;10.10;97.20
4596;DHT22;2310;49.978;8.742;2023-04-25T21:13:27;10.00;97.20
4596;DHT22;2310;49.978;8.742;2023-04-25T21:17:29;10.00;97.80
4596;DHT22;2310;49.978;8.742;2023-04-25T21:21:31;10.10;97.40
4596;DHT22;2310;49.978;8.742;2023-04-25T21:25:32;10.00;97.90
4596;DHT22;2310;49.978;8.742;2023-04-25T21:29:33;10.00;97.30
4596;DHT22;2310;49.978;8.742;2023-04-25T21:33:35;10.00;98.50
4596;DHT22;2310;49.978;8.742;2023-04-25T21:37:36;10.20;99.40
4596;DHT22;2310;49.978;8.742;2023-04-25T21:41:37;10.30;99.90
4596;DHT22;2310;49.978;8.742;2023-04-25T21:45:40;10.30;99.90
4596;DHT22;2310;49.978;8.742;2023-04-25T21:49:43;10.20;99.90
4596;DHT22;2310;49.978;8.742;2023-04-25T21:53:44;10.10;99.90
4596;DHT22;2310;49.978;8.742;2023-04-25T21:57:45;9.90;99.90
4596;DHT22;2310;49.978;8.742;2023-04-25T22:01:47;9.80;99.90
4596;DHT22;2310;49.978;8.742;2023-04-25T22:05:50;9.50;99.90
4596;DHT22;2310;49.978;8.742;2023-04-25T22:09:51;9.30;99.90
4596;DHT22;2310;49.978;8.742;2023-04-25T22:13:55;9.00;99.90
4596;DHT22;2310;49.978;8.742;2023-04-25T22:17:56;8.90;99.90
4596;DHT22;2310;49.978;8.742;2023-04-25T22:21:58;8.70;99.90
4596;DHT22;2310;49.978;8.742;2023-04-25T22:25:59;8.50;99.90
4596;DHT22;2310;49.978;8.742;2023-04-25T22:30:00;8.50;99.90
4596;DHT22;2310;49.978;8.742;2023-04-25T22:34:02;8.70;99.90
4596;DHT22;2310;49.978;8.742;2023-04-25T22:38:03;8.50;99.90
4596;DHT22;2310;49.978;8.742;2023-04-25T22:42:04;8.30;99.90
4596;DHT22;2310;49.978;8.742;2023-04-25T22:46:19;8.10;99.90
4596;DHT22;2310;49.978;8.742;2023-04-25T22:50:22;8.10;99.90
4596;DHT22;2310;49.978;8.742;2023-04-25T22:54:24;8.10;99.90
4596;DHT22;2310;49.978;8.742;2023-04-25T22:58:25;8.10;99.90
4596;DHT22;2310;49.978;8.742;2023-04-25T23:02:26;7.90;99.90
4596;DHT22;2310;49.978;8.742;2023-04-25T23:06:28;7.70;99.90
4596;DHT22;2310;49.978;8.742;2023-04-25T23:10:29;7.60;99.90
4596;DHT22;2310;49.978;8.742;2023-04-25T23:14:31;7.50;99.90
4596;DHT22;2310;49.978;8.742;2023-04-25T23:18:34;7.40;99.90
4596;DHT22;2310;49.978;8.742;2023-04-25T23:22:36;7.20;99.90
4596;DHT22;2310;49.978;8.742;2023-04-25T23:26:40;7.20;99.90
4596;DHT22;2310;49.978;8.742;2023-04-25T23:30:41;7.00;99.90
4596;DHT22;2310;49.978;8.742;2023-04-25T23:34:42;7.00;99.90
4596;DHT22;2310;49.978;8.742;2023-04-25T23:38:44;7.00;99.90
4596;DHT22;2310;49.978;8.742;2023-04-25T23:42:45;6.90;99.90
4596;DHT22;2310;49.978;8.742;2023-04-25T23:46:47;7.00;99.90
4596;DHT22;2310;49.978;8.742;2023-04-25T23:50:49;7.10;99.90
4596;DHT22;2310;49.978;8.742;2023-04-25T23:54:50;7.50;99.90
4596;DHT22;2310;49.978;8.742;2023-04-25T23:58:52;7.30;99.90
